Time;durP1;ratioP1;P1;durP2;ratioP2;P2;SDS_P1;SDS_P2;PMS_P1;PMS_P2;Temp;Humidity;BMP_temperature;BMP_pressure;BME280_temperature;BME280_humidity;BME280_pressure;Samples;Min_cycle;Max_cycle;Signal;HPM_P1;HPM_P2
2022/08/20 00:00:49;;;;;;;4.13;3.73;;;27.00;74.00;;;;;;5029956;28;20462;-73
2022/08/20 00:03:30;;;;;;;4.30;3.90;;;27.00;74.20;;;;;;5047280;28;20547;-73
2022/08/20 00:06:10;;;;;;;3.63;3.30;;;27.00;74.30;;;;;;5026847;28;20440;-73
2022/08/20 00:08:39;;;;;;;4.13;3.73;;;27.00;74.50;;;;;;5045871;28;20456;-73
2022/08/20 00:11:10;;;;;;;4.20;3.80;;;27.00;75.40;;;;;;5042863;28;20564;-73
2022/08/20 00:13:43;;;;;;;3.70;3.40;;;27.00;74.90;;;;;;5031225;28;20474;-73
2022/08/20 00:16:14;;;;;;;3.80;3.37;;;27.00;75.30;;;;;;4989713;28;20467;-73
2022/08/20 00:18:43;;;;;;;4.50;3.63;;;27.00;75.60;;;;;;5031718;28;20407;-73
2022/08/20 00:21:12;;;;;;;4.70;3.70;;;27.00;75.50;;;;;;5025165;28;20459;-73
2022/08/20 00:23:40;;;;;;;6.40;3.60;;;26.90;75.60;;;;;;5033982;28;20494;-73
2022/08/20 00:26:09;;;;;;;3.83;3.20;;;26.90;75.70;;;;;;5022272;28;20446;-73
2022/08/20 00:28:36;;;;;;;4.77;3.60;;;26.90;75.90;;;;;;5050018;28;20418;-73
2022/08/20 00:31:05;;;;;;;4.10;3.60;;;26.90;76.00;;;;;;5032415;28;20438;-73
2022/08/20 00:33:37;;;;;;;4.27;3.57;;;26.90;76.20;;;;;;5049740;28;20429;-74
2022/08/20 00:36:09;;;;;;;3.97;3.60;;;26.90;76.50;;;;;;5050353;28;20438;-73
2022/08/20 00:38:37;;;;;;;4.50;3.27;;;26.90;76.50;;;;;;5044460;28;20424;-73
2022/08/20 00:41:29;;;;;;;4.53;3.17;;;26.90;76.50;;;;;;5018472;28;20476;-73
2022/08/20 00:44:17;;;;;;;4.63;2.93;;;26.80;76.30;;;;;;5013171;28;21039;-73
2022/08/20 00:46:44;;;;;;;3.37;3.07;;;26.90;76.50;;;;;;5030900;28;20512;-73
2022/08/20 00:49:26;;;;;;;3.10;2.90;;;26.80;76.50;;;;;;5032420;28;20454;-73
2022/08/20 00:52:05;;;;;;;3.10;2.80;;;26.80;76.80;;;;;;5050271;28;20472;-73
2022/08/20 00:54:34;;;;;;;3.57;3.13;;;26.80;76.90;;;;;;5048031;28;20454;-73
2022/08/20 00:57:18;;;;;;;3.87;2.90;;;26.80;77.10;;;;;;5031966;28;20426;-73
2022/08/20 00:59:48;;;;;;;3.53;3.23;;;26.80;77.20;;;;;;5051092;28;20430;-73
2022/08/20 01:02:17;;;;;;;2.60;2.40;;;26.80;77.30;;;;;;5048668;28;20469;-73
2022/08/20 01:04:53;;;;;;;3.83;3.10;;;26.80;77.40;;;;;;5037595;28;20469;-74
2022/08/20 01:07:23;;;;;;;4.50;3.13;;;26.80;77.60;;;;;;5051513;28;20558;-73
2022/08/20 01:09:49;;;;;;;3.57;2.83;;;26.70;77.70;;;;;;5053556;28;20818;-73
2022/08/20 01:12:17;;;;;;;2.60;2.40;;;26.70;77.70;;;;;;5040300;28;20465;-73
2022/08/20 01:14:46;;;;;;;2.80;2.60;;;26.70;77.70;;;;;;5054873;28;20407;-73
2022/08/20 01:17:19;;;;;;;2.83;2.40;;;26.70;77.60;;;;;;5050515;28;20438;-73
2022/08/20 01:19:56;;;;;;;4.10;2.90;;;26.70;77.50;;;;;;5033569;28;20449;-73
2022/08/20 01:25:35;;;;;;;3.07;2.77;;;26.70;77.60;;;;;;5033623;28;20439;-73
2022/08/20 01:28:07;;;;;;;4.90;2.30;;;26.70;77.50;;;;;;5015100;28;20405;-74
2022/08/20 01:30:36;;;;;;;3.37;3.07;;;26.70;77.70;;;;;;5014755;28;20402;-73
2022/08/20 01:33:03;;;;;;;4.40;2.90;;;26.60;77.80;;;;;;5029803;28;20445;-73
2022/08/20 01:35:33;;;;;;;3.03;2.30;;;26.60;78.20;;;;;;5028377;28;20433;-73
2022/08/20 01:37:59;;;;;;;5.53;2.97;;;26.60;78.50;;;;;;5052365;28;20958;-73
2022/08/20 01:40:59;;;;;;;3.10;2.43;;;26.60;78.70;;;;;;5051177;28;20434;-73
2022/08/20 01:43:26;;;;;;;3.00;2.70;;;26.60;78.70;;;;;;5046646;28;20498;-73
2022/08/20 01:45:55;;;;;;;3.10;2.80;;;26.60;78.60;;;;;;5017487;28;20461;-74
2022/08/20 01:48:22;;;;;;;2.93;2.63;;;26.60;78.40;;;;;;5048748;28;20491;-73
2022/08/20 01:51:12;;;;;;;3.90;3.00;;;26.60;78.30;;;;;;5014156;28;20464;-73
2022/08/20 01:53:45;;;;;;;2.97;2.60;;;26.60;78.40;;;;;;5064933;28;20463;-73
2022/08/20 01:56:20;;;;;;;3.73;2.73;;;26.60;78.50;;;;;;5032805;28;20446;-73
2022/08/20 01:58:52;;;;;;;2.77;2.53;;;26.50;78.60;;;;;;5032078;28;20513;-73
2022/08/20 02:01:31;;;;;;;3.27;2.50;;;26.50;78.50;;;;;;5032186;28;20507;-73
2022/08/20 02:03:58;;;;;;;3.33;3.03;;;26.50;78.50;;;;;;5016602;28;20545;-73
2022/08/20 02:06:26;;;;;;;3.30;2.60;;;26.50;78.60;;;;;;5031578;28;20439;-74
2022/08/20 02:08:58;;;;;;;4.40;2.80;;;26.50;79.50;;;;;;5052840;28;20924;-73
2022/08/20 02:11:24;;;;;;;2.73;2.50;;;26.50;78.70;;;;;;5043531;28;20451;-73
2022/08/20 02:13:53;;;;;;;3.60;2.50;;;26.50;78.70;;;;;;5022734;28;20471;-74
2022/08/20 02:16:22;;;;;;;2.50;2.10;;;26.50;78.50;;;;;;5014483;28;20400;-73
2022/08/20 02:18:54;;;;;;;2.63;2.43;;;26.50;78.50;;;;;;5044740;28;20871;-73
2022/08/20 02:21:22;;;;;;;2.73;2.43;;;26.50;78.50;;;;;;5012770;28;20528;-73
2022/08/20 02:23:53;;;;;;;3.07;2.77;;;26.40;78.40;;;;;;5032026;28;20482;-73
2022/08/20 02:26:19;;;;;;;3.60;2.80;;;26.40;78.50;;;;;;5032899;28;20490;-73
2022/08/20 02:28:49;;;;;;;2.90;2.57;;;26.40;78.60;;;;;;5051955;28;20915;-73
2022/08/20 02:31:21;;;;;;;3.03;2.80;;;26.40;78.80;;;;;;5039990;28;20482;-73
2022/08/20 02:33:48;;;;;;;2.50;2.30;;;26.40;78.80;;;;;;5028001;28;20533;-73
2022/08/20 02:36:17;;;;;;;3.17;2.23;;;26.40;78.70;;;;;;5051468;28;20520;-73
2022/08/20 02:38:44;;;;;;;3.00;2.70;;;26.40;78.60;;;;;;5048440;28;20435;-73
2022/08/20 02:41:11;;;;;;;2.57;2.37;;;26.40;78.60;;;;;;5032534;28;20496;-73
2022/08/20 02:43:37;;;;;;;4.57;2.73;;;26.40;78.70;;;;;;5047514;28;20455;-73
2022/08/20 02:46:05;;;;;;;3.60;2.70;;;26.30;78.40;;;;;;5032637;28;20514;-73
2022/08/20 02:48:39;;;;;;;2.67;2.30;;;26.30;78.30;;;;;;5050092;28;20449;-73
2022/08/20 02:51:08;;;;;;;3.40;2.73;;;26.30;78.40;;;;;;5052820;28;20391;-73
2022/08/20 02:53:37;;;;;;;3.03;2.70;;;26.30;78.40;;;;;;5049696;28;20599;-73
2022/08/20 02:56:06;;;;;;;3.73;2.97;;;26.30;78.40;;;;;;5052848;28;20678;-73
2022/08/20 02:58:34;;;;;;;2.83;2.40;;;26.30;78.50;;;;;;5012860;28;20478;-73
2022/08/20 03:01:02;;;;;;;2.60;2.40;;;26.30;78.50;;;;;;5013129;28;20445;-73
2022/08/20 03:03:41;;;;;;;2.53;2.33;;;26.30;78.60;;;;;;5050794;28;20457;-73
2022/08/20 03:06:10;;;;;;;3.63;2.90;;;26.30;78.50;;;;;;5051672;28;20399;-73
2022/08/20 03:08:37;;;;;;;5.93;2.60;;;26.30;78.50;;;;;;5031923;28;20431;-73
2022/08/20 03:11:06;;;;;;;2.53;2.30;;;26.30;78.50;;;;;;5032589;28;20446;-74
2022/08/20 03:13:32;;;;;;;4.83;2.80;;;26.30;78.50;;;;;;5041356;28;20457;-74
2022/08/20 03:16:01;;;;;;;2.67;2.47;;;26.30;78.40;;;;;;5011817;28;20782;-74
2022/08/20 03:18:33;;;;;;;2.93;2.27;;;26.20;78.40;;;;;;5048034;28;20437;-73
2022/08/20 03:20:59;;;;;;;2.53;2.30;;;26.20;78.40;;;;;;5043614;28;20466;-74
2022/08/20 03:23:25;;;;;;;2.50;2.30;;;26.20;78.40;;;;;;5047236;28;20871;-74
2022/08/20 03:25:54;;;;;;;2.73;2.50;;;26.20;78.40;;;;;;5030483;28;20489;-74
2022/08/20 03:28:20;;;;;;;3.33;2.70;;;26.20;78.40;;;;;;5021549;28;20438;-74
2022/08/20 03:30:47;;;;;;;2.80;2.37;;;26.20;78.40;;;;;;5031567;28;20431;-74
2022/08/20 03:33:13;;;;;;;3.03;2.70;;;26.20;78.40;;;;;;5030629;28;20447;-74
2022/08/20 03:35:41;;;;;;;2.70;2.50;;;26.20;78.40;;;;;;5032534;28;20448;-74
2022/08/20 03:38:10;;;;;;;2.63;2.43;;;26.10;78.40;;;;;;5036863;28;20477;-74
2022/08/20 03:40:36;;;;;;;3.20;2.43;;;26.10;78.40;;;;;;5047773;28;20432;-74
2022/08/20 03:43:05;;;;;;;3.30;3.00;;;26.10;78.40;;;;;;5050544;28;20438;-74
2022/08/20 03:45:31;;;;;;;3.07;2.80;;;26.10;78.40;;;;;;5044199;28;20567;-74
2022/08/20 03:48:00;;;;;;;2.60;2.33;;;26.10;78.40;;;;;;5015483;28;20456;-74
2022/08/20 03:50:29;;;;;;;3.03;2.50;;;26.10;78.50;;;;;;5046681;28;20434;-74
2022/08/20 03:52:59;;;;;;;2.77;2.47;;;26.10;78.50;;;;;;5018094;28;20455;-73
2022/08/20 03:55:28;;;;;;;2.30;2.10;;;26.10;78.50;;;;;;5005368;28;20466;-74
2022/08/20 03:58:05;;;;;;;2.60;2.40;;;26.10;78.50;;;;;;5034291;28;20671;-74
2022/08/20 04:00:45;;;;;;;3.23;2.70;;;26.10;78.60;;;;;;5050837;28;20411;-74
2022/08/20 04:03:11;;;;;;;3.10;2.30;;;26.10;78.60;;;;;;5048149;28;20493;-74
2022/08/20 04:05:39;;;;;;;2.80;2.43;;;26.10;78.60;;;;;;5033925;28;20492;-74
2022/08/20 04:08:17;;;;;;;2.50;2.30;;;26.10;78.60;;;;;;5043214;28;20432;-74
2022/08/20 04:10:47;;;;;;;2.40;2.20;;;26.00;78.50;;;;;;5031958;28;20437;-74
2022/08/20 04:13:15;;;;;;;3.27;2.30;;;26.00;78.50;;;;;;5059759;28;20452;-74
2022/08/20 04:15:43;;;;;;;2.50;2.30;;;26.00;78.60;;;;;;5034240;28;20419;-74
2022/08/20 04:18:11;;;;;;;2.40;2.20;;;26.00;78.50;;;;;;5033713;28;20446;-74
2022/08/20 04:20:42;;;;;;;3.03;1.90;;;26.00;78.60;;;;;;5046149;28;20427;-74
2022/08/20 04:23:12;;;;;;;2.37;2.17;;;26.00;78.70;;;;;;5030542;28;20432;-74
2022/08/20 04:25:39;;;;;;;2.43;2.23;;;26.00;78.80;;;;;;5014096;28;20853;-74
2022/08/20 04:28:12;;;;;;;2.60;2.40;;;26.00;78.80;;;;;;5017798;28;20410;-74
2022/08/20 04:30:39;;;;;;;2.63;2.43;;;26.00;78.90;;;;;;5048595;28;20469;-74
2022/08/20 04:33:05;;;;;;;3.33;2.47;;;26.00;79.10;;;;;;5025175;28;20445;-74
2022/08/20 04:35:31;;;;;;;3.77;2.93;;;25.90;79.30;;;;;;5016388;28;20416;-74
2022/08/20 04:37:58;;;;;;;8.10;3.07;;;25.90;79.50;;;;;;5053242;28;20394;-74
2022/08/20 04:43:15;;;;;;;3.40;3.10;;;25.90;79.80;;;;;;5030466;28;20457;-74
2022/08/20 04:45:41;;;;;;;3.77;2.67;;;25.90;79.90;;;;;;5017534;28;20870;-74
2022/08/20 04:48:08;;;;;;;3.90;3.40;;;25.90;80.20;;;;;;5026702;28;20435;-74
2022/08/20 04:50:37;;;;;;;2.30;2.10;;;25.90;80.30;;;;;;5046401;28;20932;-74
2022/08/20 04:53:15;;;;;;;2.83;2.63;;;25.90;80.30;;;;;;5023131;28;20450;-74
2022/08/20 04:55:46;;;;;;;3.30;2.63;;;25.80;80.00;;;;;;5053520;28;20770;-74
2022/08/20 04:58:18;;;;;;;2.50;2.30;;;25.80;80.00;;;;;;5070447;28;20910;-74
2022/08/20 05:00:49;;;;;;;2.80;2.60;;;25.80;80.10;;;;;;5014668;28;20974;-73
2022/08/20 05:03:16;;;;;;;3.07;2.77;;;25.80;80.10;;;;;;5047091;28;20886;-74
2022/08/20 05:05:44;;;;;;;3.27;3.00;;;25.80;80.10;;;;;;5022105;28;20920;-74
2022/08/20 05:08:11;;;;;;;2.53;2.30;;;25.80;80.10;;;;;;5034270;28;22520;-74
2022/08/20 05:10:39;;;;;;;2.97;2.70;;;25.80;80.20;;;;;;5047370;28;20448;-74
2022/08/20 05:13:06;;;;;;;2.97;2.73;;;25.80;80.20;;;;;;5055532;28;20988;-74
2022/08/20 05:15:33;;;;;;;2.77;2.57;;;25.70;80.20;;;;;;5041604;28;20528;-74
2022/08/20 05:18:03;;;;;;;3.17;2.73;;;25.70;80.10;;;;;;5051415;28;20959;-73
2022/08/20 05:20:32;;;;;;;2.73;2.53;;;25.70;80.10;;;;;;5037159;28;20460;-73
2022/08/20 05:23:00;;;;;;;3.00;2.80;;;25.70;80.20;;;;;;5036919;28;20999;-74
2022/08/20 05:25:28;;;;;;;2.90;2.70;;;25.70;80.30;;;;;;5054775;28;20412;-73
2022/08/20 05:28:08;;;;;;;2.97;2.67;;;25.70;80.40;;;;;;5049790;28;20462;-74
2022/08/20 05:30:45;;;;;;;2.87;2.43;;;25.70;80.30;;;;;;4997297;28;20415;-74
2022/08/20 05:33:27;;;;;;;2.53;2.33;;;25.60;80.20;;;;;;5026826;28;20496;-74
2022/08/20 05:35:56;;;;;;;2.60;2.40;;;25.60;80.30;;;;;;5047608;28;20511;-74
2022/08/20 05:38:27;;;;;;;4.23;2.30;;;25.60;80.30;;;;;;5017248;28;20436;-74
2022/08/20 05:40:53;;;;;;;2.63;2.27;;;25.60;80.50;;;;;;5014341;28;20444;-74
2022/08/20 05:43:20;;;;;;;3.00;2.80;;;25.60;80.60;;;;;;5045561;28;20443;-74
2022/08/20 05:45:51;;;;;;;2.73;2.53;;;25.60;80.70;;;;;;5052260;28;20815;-74
2022/08/20 05:48:20;;;;;;;3.07;2.57;;;25.60;80.70;;;;;;5040987;28;20478;-74
2022/08/20 05:51:07;;;;;;;2.73;2.53;;;25.60;80.70;;;;;;5015501;28;20857;-73
2022/08/20 05:53:33;;;;;;;2.60;2.40;;;25.60;80.70;;;;;;5049761;28;20592;-74
2022/08/20 05:56:00;;;;;;;3.60;2.50;;;25.60;80.80;;;;;;5016329;28;20529;-74
2022/08/20 05:58:29;;;;;;;2.53;2.33;;;25.60;80.90;;;;;;5041232;28;20196;-74
2022/08/20 06:00:55;;;;;;;2.73;2.50;;;25.60;80.70;;;;;;5052908;28;21026;-74
2022/08/20 06:06:07;;;;;;;2.77;2.20;;;25.60;80.90;;;;;;4996760;28;20437;-74
2022/08/20 06:08:33;;;;;;;2.63;2.40;;;25.50;81.10;;;;;;5036107;28;20450;-74
2022/08/20 06:11:01;;;;;;;2.67;2.47;;;25.50;81.20;;;;;;5053916;28;20744;-73
2022/08/20 06:13:28;;;;;;;3.57;2.33;;;25.50;81.10;;;;;;5047150;28;20456;-73
2022/08/20 06:15:56;;;;;;;2.40;2.20;;;25.50;80.90;;;;;;5032449;28;20446;-74
2022/08/20 06:18:22;;;;;;;3.00;2.70;;;25.50;80.70;;;;;;5058244;28;20455;-74
2022/08/20 06:20:50;;;;;;;2.70;2.50;;;25.50;80.70;;;;;;5052526;28;20477;-74
2022/08/20 06:23:19;;;;;;;3.37;2.50;;;25.50;80.80;;;;;;5043427;28;20489;-73
2022/08/20 06:25:49;;;;;;;2.57;2.37;;;25.40;80.70;;;;;;5036158;28;20498;-73
2022/08/20 06:28:16;;;;;;;2.17;2.00;;;25.40;80.60;;;;;;5038334;28;20533;-74
2022/08/20 06:30:42;;;;;;;2.20;2.00;;;25.40;80.60;;;;;;5013890;28;20909;-73
2022/08/20 06:33:11;;;;;;;2.30;2.10;;;25.40;80.60;;;;;;5014924;28;20786;-73
2022/08/20 06:35:39;;;;;;;2.30;2.00;;;25.40;80.50;;;;;;5014972;28;20401;-73
2022/08/20 06:38:09;;;;;;;3.60;2.80;;;25.40;80.50;;;;;;5013756;28;20937;-73
2022/08/20 06:40:37;;;;;;;2.90;2.37;;;25.40;80.80;;;;;;5065311;28;20440;-73
2022/08/20 06:43:07;;;;;;;2.40;2.20;;;25.40;80.80;;;;;;5053292;28;20548;-73
2022/08/20 06:45:37;;;;;;;2.97;2.27;;;25.40;80.90;;;;;;5053115;28;20427;-72
2022/08/20 06:48:23;;;;;;;2.60;2.40;;;25.40;80.90;;;;;;5032356;28;20423;-73
2022/08/20 06:50:49;;;;;;;2.70;2.50;;;25.40;80.90;;;;;;5021281;28;20473;-73
2022/08/20 06:53:21;;;;;;;3.23;2.70;;;25.40;81.10;;;;;;5033264;28;20445;-73
2022/08/20 06:55:51;;;;;;;3.40;3.10;;;25.40;81.10;;;;;;5016811;28;20451;-73
2022/08/20 06:58:22;;;;;;;5.10;4.00;;;25.40;81.30;;;;;;5034328;28;20400;-73
2022/08/20 07:00:49;;;;;;;4.57;4.17;;;25.40;81.50;;;;;;5032931;28;20400;-73
2022/08/20 07:03:15;;;;;;;5.10;4.40;;;25.40;81.80;;;;;;5033017;28;20466;-73
2022/08/20 07:05:43;;;;;;;8.73;6.20;;;25.40;81.90;;;;;;5016548;28;20434;-73
2022/08/20 07:08:12;;;;;;;5.73;5.13;;;25.30;81.90;;;;;;5016628;28;20453;-73
2022/08/20 07:10:40;;;;;;;5.23;4.73;;;25.30;82.60;;;;;;5033963;28;20397;-73
2022/08/20 07:13:10;;;;;;;7.07;6.37;;;25.40;82.30;;;;;;5032827;28;20863;-73
2022/08/20 07:15:40;;;;;;;6.83;6.17;;;25.30;82.20;;;;;;5033953;28;20952;-73
2022/08/20 07:18:06;;;;;;;9.33;7.23;;;25.30;82.20;;;;;;5016482;28;20419;-73
2022/08/20 07:20:35;;;;;;;9.57;8.57;;;25.30;82.40;;;;;;5032901;28;20420;-73
2022/08/20 07:23:01;;;;;;;8.97;8.17;;;25.30;82.80;;;;;;5032451;28;20443;-72
2022/08/20 07:25:29;;;;;;;8.30;7.47;;;25.30;82.90;;;;;;5032468;28;20400;-73
2022/08/20 07:28:05;;;;;;;8.67;7.87;;;25.20;82.50;;;;;;5031964;28;20402;-73
2022/08/20 07:33:30;;;;;;;9.63;8.03;;;25.20;82.40;;;;;;5033236;28;20447;-73
2022/08/20 07:35:57;;;;;;;8.83;7.97;;;25.20;82.40;;;;;;5033511;28;20901;-73
2022/08/20 07:38:25;;;;;;;9.67;8.30;;;25.20;82.60;;;;;;5032630;28;20420;-73
2022/08/20 07:40:54;;;;;;;10.70;9.70;;;25.20;82.70;;;;;;5032218;28;20416;-75
2022/08/20 07:43:22;;;;;;;9.40;8.60;;;25.20;82.70;;;;;;5031864;28;20435;-75
2022/08/20 07:45:57;;;;;;;8.93;8.13;;;25.20;82.80;;;;;;5015912;28;20432;-74
2022/08/20 07:48:24;;;;;;;10.03;8.90;;;25.20;82.70;;;;;;5032372;28;20952;-74
2022/08/20 07:50:53;;;;;;;9.60;8.70;;;25.20;82.60;;;;;;5049050;28;20649;-74
2022/08/20 07:53:19;;;;;;;10.00;8.93;;;25.20;82.60;;;;;;5015989;28;20455;-74
2022/08/20 07:55:45;;;;;;;10.10;9.07;;;25.20;82.70;;;;;;5033524;28;20399;-74
2022/08/20 07:58:14;;;;;;;9.83;8.83;;;25.10;83.40;;;;;;5032315;28;20510;-74
2022/08/20 08:00:40;;;;;;;10.33;8.90;;;25.10;82.70;;;;;;5033173;28;20407;-74
2022/08/20 08:03:08;;;;;;;11.47;9.93;;;25.10;82.70;;;;;;5032931;28;20454;-75
2022/08/20 08:05:39;;;;;;;10.63;9.20;;;25.10;83.50;;;;;;5015789;28;20430;-75
2022/08/20 08:08:16;;;;;;;10.60;9.60;;;25.10;82.60;;;;;;5031303;28;20955;-74
2022/08/20 08:10:46;;;;;;;9.97;9.07;;;25.20;82.70;;;;;;5033177;28;20430;-75
2022/08/20 08:13:31;;;;;;;9.10;8.30;;;25.20;82.80;;;;;;5032181;28;20462;-74
2022/08/20 08:16:00;;;;;;;9.93;9.07;;;25.10;82.70;;;;;;5032970;28;20441;-74
2022/08/20 08:18:35;;;;;;;10.90;9.80;;;25.10;82.70;;;;;;5015539;28;20420;-75
2022/08/20 08:21:01;;;;;;;10.27;9.27;;;25.10;82.70;;;;;;5015501;28;20525;-74
2022/08/20 08:23:28;;;;;;;9.93;9.00;;;25.10;82.80;;;;;;5031824;28;20471;-75
2022/08/20 08:25:54;;;;;;;9.83;8.93;;;25.10;82.80;;;;;;5032006;28;20419;-74
2022/08/20 08:28:21;;;;;;;11.43;8.57;;;25.10;82.70;;;;;;5031395;28;20442;-75
2022/08/20 08:30:47;;;;;;;8.63;7.83;;;25.10;82.80;;;;;;5031599;28;20421;-74
2022/08/20 08:33:31;;;;;;;9.63;8.63;;;25.10;82.80;;;;;;5031763;28;20538;-75
2022/08/20 08:36:02;;;;;;;10.07;9.07;;;25.10;82.70;;;;;;5015109;28;20879;-74
2022/08/20 08:38:30;;;;;;;9.63;8.60;;;25.10;82.70;;;;;;5037751;28;20432;-74
2022/08/20 08:41:08;;;;;;;9.83;8.90;;;25.00;82.70;;;;;;5052630;28;20391;-75
2022/08/20 08:43:34;;;;;;;9.93;8.93;;;25.00;82.60;;;;;;5051657;28;20517;-75
2022/08/20 08:46:04;;;;;;;9.80;8.03;;;25.00;82.60;;;;;;5052675;28;20388;-75
2022/08/20 08:48:36;;;;;;;10.33;9.23;;;25.00;82.80;;;;;;5050961;28;20401;-74
2022/08/20 08:51:06;;;;;;;9.80;9.00;;;25.00;82.90;;;;;;5049850;28;20884;-75
2022/08/20 08:53:45;;;;;;;11.83;10.23;;;25.00;83.20;;;;;;5052476;28;20864;-75
2022/08/20 08:56:13;;;;;;;14.43;9.60;;;25.00;83.40;;;;;;5052516;28;20461;-74
2022/08/20 08:58:40;;;;;;;9.63;8.60;;;25.00;83.50;;;;;;5051713;28;20456;-76
2022/08/20 09:01:15;;;;;;;9.33;8.40;;;25.00;83.20;;;;;;5033180;28;20498;-75
2022/08/20 09:03:44;;;;;;;11.83;8.57;;;25.00;83.30;;;;;;5014507;28;20477;-76
2022/08/20 09:06:19;;;;;;;10.57;9.40;;;25.00;83.30;;;;;;5028521;28;20436;-76
2022/08/20 09:08:59;;;;;;;10.90;9.60;;;25.00;83.10;;;;;;5067124;28;20474;-75
2022/08/20 09:11:31;;;;;;;9.33;8.20;;;25.00;83.20;;;;;;5026329;28;20455;-76
2022/08/20 09:13:57;;;;;;;9.87;8.30;;;25.00;83.40;;;;;;5022815;28;20460;-76
2022/08/20 09:16:27;;;;;;;10.30;8.63;;;25.00;83.50;;;;;;5012040;28;20508;-76
2022/08/20 09:18:56;;;;;;;11.10;8.83;;;25.00;83.30;;;;;;5013158;28;21051;-74
2022/08/20 09:21:27;;;;;;;9.20;8.20;;;25.00;83.20;;;;;;5032776;28;20467;-75
2022/08/20 09:23:55;;;;;;;9.10;8.20;;;25.00;83.10;;;;;;5034374;28;20502;-76
2022/08/20 09:26:23;;;;;;;9.77;7.90;;;24.90;83.00;;;;;;5032520;28;20503;-76
2022/08/20 09:28:55;;;;;;;8.83;8.00;;;24.90;82.80;;;;;;5034484;28;20412;-76
2022/08/20 09:31:23;;;;;;;8.33;7.53;;;25.00;82.80;;;;;;5034371;28;20511;-75
2022/08/20 09:33:52;;;;;;;9.23;7.67;;;24.90;82.70;;;;;;5034262;28;20519;-76
2022/08/20 09:36:19;;;;;;;10.13;8.10;;;25.00;82.70;;;;;;5030710;28;20427;-75
2022/08/20 09:38:47;;;;;;;8.40;7.27;;;24.90;82.70;;;;;;5014353;28;20411;-76
2022/08/20 09:41:13;;;;;;;9.10;8.20;;;25.00;82.70;;;;;;5015437;28;20815;-76
2022/08/20 09:43:42;;;;;;;9.40;7.27;;;24.90;82.60;;;;;;5015353;28;20432;-75
2022/08/20 09:46:08;;;;;;;8.67;7.77;;;24.90;82.70;;;;;;5014152;28;20402;-75
2022/08/20 09:48:34;;;;;;;8.60;7.63;;;24.90;82.70;;;;;;5030917;28;20731;-75
2022/08/20 09:51:00;;;;;;;8.07;7.23;;;24.90;82.70;;;;;;5038296;28;20439;-76
2022/08/20 09:53:27;;;;;;;7.70;6.50;;;25.00;82.70;;;;;;5055365;28;20458;-76
2022/08/20 09:55:55;;;;;;;8.00;7.23;;;24.90;82.70;;;;;;5054013;28;20928;-76
2022/08/20 09:58:22;;;;;;;13.00;7.97;;;25.00;82.80;;;;;;5055034;28;20397;-76
2022/08/20 10:00:53;;;;;;;8.40;7.50;;;24.90;82.70;;;;;;5034643;28;20510;-76
2022/08/20 10:03:21;;;;;;;10.63;7.90;;;24.90;82.70;;;;;;5033455;28;20459;-76
2022/08/20 10:05:47;;;;;;;8.43;7.60;;;24.90;82.80;;;;;;5033814;28;20424;-76
2022/08/20 10:08:14;;;;;;;8.33;7.53;;;24.90;82.80;;;;;;5030456;28;20475;-76
2022/08/20 10:10:45;;;;;;;8.53;7.27;;;24.90;82.60;;;;;;5016185;28;20492;-75
2022/08/20 10:13:13;;;;;;;12.03;7.83;;;24.90;82.60;;;;;;5053582;28;20460;-76
2022/08/20 10:15:39;;;;;;;9.33;7.90;;;24.90;82.80;;;;;;5053332;28;20406;-76
2022/08/20 10:18:08;;;;;;;12.30;7.67;;;24.90;82.90;;;;;;5053220;28;20434;-76
2022/08/20 10:20:34;;;;;;;9.70;7.90;;;24.90;82.80;;;;;;5054421;28;20486;-76
2022/08/20 10:23:01;;;;;;;9.77;7.93;;;24.90;82.90;;;;;;5042065;28;20474;-76
2022/08/20 10:25:28;;;;;;;10.37;7.37;;;24.90;83.00;;;;;;5016626;28;20428;-73
2022/08/20 10:27:54;;;;;;;11.80;8.30;;;24.90;83.00;;;;;;5046479;28;20975;-74
2022/08/20 10:30:21;;;;;;;10.80;7.10;;;24.90;83.00;;;;;;5013311;28;20950;-73
2022/08/20 10:32:48;;;;;;;13.60;8.67;;;24.90;83.00;;;;;;5029519;28;21012;-73
2022/08/20 10:35:16;;;;;;;8.30;7.43;;;24.90;83.00;;;;;;5013427;28;20429;-73
2022/08/20 10:37:45;;;;;;;8.67;7.33;;;24.90;82.80;;;;;;5046566;28;20423;-74
2022/08/20 10:40:14;;;;;;;13.57;8.00;;;24.90;82.70;;;;;;5029829;28;20436;-73
2022/08/20 10:42:45;;;;;;;10.23;8.40;;;24.90;82.50;;;;;;5014088;28;20843;-73
2022/08/20 10:45:13;;;;;;;8.80;7.67;;;24.90;82.30;;;;;;5046139;28;20437;-73
2022/08/20 10:47:48;;;;;;;11.00;8.17;;;24.90;82.40;;;;;;5028352;28;20989;-73
2022/08/20 10:50:18;;;;;;;8.90;8.00;;;24.90;82.40;;;;;;5014738;28;20419;-74
2022/08/20 10:52:45;;;;;;;9.07;7.63;;;24.90;82.30;;;;;;5030170;28;20496;-75
2022/08/20 10:55:11;;;;;;;9.07;7.60;;;24.90;82.30;;;;;;4996969;28;20416;-75
2022/08/20 10:57:39;;;;;;;9.40;8.00;;;24.90;82.30;;;;;;5014098;28;20471;-74
2022/08/20 11:00:09;;;;;;;9.43;7.97;;;24.90;82.30;;;;;;5013189;28;20492;-74
2022/08/20 11:02:37;;;;;;;13.13;8.67;;;24.90;82.20;;;;;;5030071;28;20484;-75
2022/08/20 11:05:07;;;;;;;9.57;7.90;;;24.90;82.30;;;;;;5049437;28;20415;-76
2022/08/20 11:07:38;;;;;;;12.10;8.63;;;24.90;82.10;;;;;;5032511;28;20538;-76
2022/08/20 11:10:09;;;;;;;11.00;9.30;;;24.90;82.10;;;;;;5015955;28;20428;-76
2022/08/20 11:12:35;;;;;;;10.50;9.40;;;24.90;82.30;;;;;;5049053;28;20510;-76
2022/08/20 11:15:01;;;;;;;10.80;8.77;;;24.90;82.60;;;;;;5033563;28;20408;-77
2022/08/20 11:17:33;;;;;;;9.90;8.90;;;24.90;82.60;;;;;;5049038;28;20423;-76
2022/08/20 11:20:00;;;;;;;11.50;8.70;;;25.00;82.50;;;;;;5030101;28;20486;-76
2022/08/20 11:22:28;;;;;;;11.27;8.93;;;24.90;82.20;;;;;;5012241;28;20463;-76
2022/08/20 11:25:01;;;;;;;11.93;8.80;;;25.00;82.20;;;;;;5010605;28;20428;-76
2022/08/20 11:27:37;;;;;;;11.23;8.77;;;25.00;82.10;;;;;;5012070;28;20533;-73
2022/08/20 11:30:06;;;;;;;11.50;10.30;;;25.00;82.00;;;;;;5012183;28;20487;-73
2022/08/20 11:32:32;;;;;;;9.50;8.60;;;25.00;81.90;;;;;;5023006;28;20436;-74
2022/08/20 11:35:00;;;;;;;11.17;8.80;;;25.00;82.20;;;;;;5065396;28;20798;-74
2022/08/20 11:37:31;;;;;;;11.23;8.90;;;25.00;81.80;;;;;;5033138;28;20399;-74
2022/08/20 11:39:57;;;;;;;8.60;7.80;;;25.00;81.60;;;;;;5033104;28;20440;-74
2022/08/20 11:42:23;;;;;;;10.90;8.63;;;25.00;81.70;;;;;;5031399;28;20467;-74
2022/08/20 11:44:53;;;;;;;14.23;8.50;;;25.00;81.60;;;;;;5031719;28;20416;-72
2022/08/20 11:47:28;;;;;;;9.90;8.80;;;25.00;81.40;;;;;;5015871;28;20411;-75
2022/08/20 11:50:09;;;;;;;10.47;8.53;;;25.00;81.40;;;;;;5016054;28;20809;-74
2022/08/20 11:52:36;;;;;;;9.17;8.23;;;25.00;81.30;;;;;;5015962;28;20492;-75
2022/08/20 11:55:02;;;;;;;11.30;8.60;;;25.00;81.20;;;;;;5033072;28;20403;-75
2022/08/20 11:57:30;;;;;;;9.60;8.60;;;25.10;81.20;;;;;;5015455;28;20419;-76
2022/08/20 11:59:58;;;;;;;13.87;9.87;;;25.10;81.10;;;;;;5031510;28;20896;-76
2022/08/20 12:02:27;;;;;;;9.33;8.43;;;25.10;81.30;;;;;;5032531;28;20486;-76
2022/08/20 12:04:57;;;;;;;10.57;9.57;;;25.10;81.50;;;;;;5015516;28;20454;-76
2022/08/20 12:07:24;;;;;;;11.17;10.07;;;25.10;81.40;;;;;;5031535;28;20402;-76
2022/08/20 12:09:51;;;;;;;10.10;9.10;;;25.10;81.30;;;;;;5032719;28;20395;-76
2022/08/20 12:12:19;;;;;;;10.33;8.80;;;25.10;81.10;;;;;;5031357;28;20948;-75
2022/08/20 12:14:45;;;;;;;10.50;9.50;;;25.10;81.00;;;;;;5032503;28;20778;-76
2022/08/20 12:17:20;;;;;;;10.23;9.23;;;25.10;80.80;;;;;;5031458;28;20951;-76
2022/08/20 12:19:53;;;;;;;13.43;10.90;;;25.10;80.70;;;;;;5032888;28;20470;-76
2022/08/20 12:22:19;;;;;;;10.00;9.00;;;25.20;80.70;;;;;;5031080;28;20525;-76
2022/08/20 12:24:46;;;;;;;10.70;9.70;;;25.20;80.80;;;;;;5013032;28;20416;-75
2022/08/20 12:27:15;;;;;;;9.83;8.83;;;25.20;80.80;;;;;;5014808;28;20460;-76
2022/08/20 12:29:46;;;;;;;10.80;9.70;;;25.20;80.70;;;;;;5032641;28;20431;-76
2022/08/20 12:32:17;;;;;;;10.17;9.27;;;25.20;80.60;;;;;;5014795;28;20446;-76
2022/08/20 12:34:49;;;;;;;9.40;8.60;;;25.20;80.60;;;;;;5031410;28;20840;-76
2022/08/20 12:37:21;;;;;;;10.50;9.50;;;25.20;80.40;;;;;;5033468;28;20411;-79
2022/08/20 12:39:49;;;;;;;10.27;9.23;;;25.20;80.40;;;;;;5031721;28;20463;-76
2022/08/20 12:42:16;;;;;;;10.40;9.40;;;25.20;80.20;;;;;;5047630;28;20469;-76
2022/08/20 12:44:43;;;;;;;10.50;9.40;;;25.30;80.20;;;;;;5032383;28;20427;-76
2022/08/20 12:47:13;;;;;;;9.73;8.80;;;25.30;80.10;;;;;;5032479;28;20765;-76
2022/08/20 12:49:49;;;;;;;12.50;10.30;;;25.30;80.00;;;;;;5015119;28;20403;-77
2022/08/20 12:52:18;;;;;;;11.17;10.07;;;25.30;79.90;;;;;;5047729;28;20450;-75
2022/08/20 12:54:50;;;;;;;10.37;9.47;;;25.30;79.90;;;;;;5033024;28;20510;-75
2022/08/20 12:57:30;;;;;;;11.17;9.17;;;25.30;79.80;;;;;;5051676;28;20877;-75
2022/08/20 12:59:58;;;;;;;9.90;9.00;;;25.30;79.80;;;;;;5018790;28;20419;-76
2022/08/20 13:02:27;;;;;;;10.40;9.40;;;25.40;79.70;;;;;;5034482;28;20612;-76
2022/08/20 13:04:53;;;;;;;11.87;10.67;;;25.40;79.60;;;;;;5035964;28;20402;-76
2022/08/20 13:07:22;;;;;;;9.70;8.80;;;25.40;79.50;;;;;;5034740;28;20407;-76
2022/08/20 13:09:50;;;;;;;9.40;8.37;;;25.40;79.40;;;;;;5034812;28;20403;-76